Pearl Of Scandinavia — OWFU2 — position and weather

sailwx.info

Track history (hours):
 
Tides and Currents Weather Stations Pressure Air Temp Water Temp Dewpoint Dewpoint Depression Visibility Wind Speed Wind Dir Waves Ship Positions

Pearl Of Scandinavia

Last reported at 2015-Jan-27 22:33 UTC. Time now 2015-Jan-27 23:06 UTC.
Position N 57°24' E 011°32'.

Length 176.4 m; beam 34 m; draft 6.215 m.

Type: Ship. MMSI: 219945000.

Date/timePositionNaut miles runAvg speedWind from/ knotsBaromVisibWave heightAir tempDewpointWater temp
2015-Jan-27 22:33N 57°24' E 011°32'1716.6
2015-Jan-27 21:33N 57°08' E 011°41'1616.6
2015-Jan-27 20:33N 56°52' E 011°52'1616.5
2015-Jan-27 19:33N 56°38' E 012°07'1616.2
2015-Jan-27 18:33N 56°23' E 012°18'1616.2
2015-Jan-27 17:33N 56°09' E 012°31'1515.3
2015-Jan-27 16:33N 55°55' E 012°44'1313.3
2015-Jan-27 15:33N 55°42' E 012°37'0 0.5
2015-Jan-27 14:33N 55°42' E 012°36'0 0.0
2015-Jan-27 13:33N 55°42' E 012°36'0 0.0
2015-Jan-27 12:33N 55°42' E 012°36'0 0.0
2015-Jan-27 11:33N 55°42' E 012°36'0 0.0
2015-Jan-27 10:30N 55°42' E 012°36'0 0.0
2015-Jan-27 09:33N 55°42' E 012°36'0 0.2
2015-Jan-27 08:33N 55°42' E 012°36'1110.7
2015-Jan-27 07:33N 55°53' E 012°40'1414.4
2015-Jan-27 06:33N 56°06' E 012°32'1515.4
2015-Jan-27 05:33N 56°21' E 012°22'1515.4
2015-Jan-27 04:33N 56°36' E 012°16'1615.9
2015-Jan-27 03:33N 56°51' E 012°10'1616.0
2015-Jan-27 02:34N 57°06' E 011°58'1716.7
2015-Jan-27 01:34N 57°21' E 011°43'1616.3
2015-Jan-27 00:33N 57°35' E 011°29'1616.3
2015-Jan-26 23:33N 57°50' E 011°16'1716.6
2015-Jan-26 22:33N 58°05' E 011°05'1616.1
2015-Jan-26 21:33N 58°21' E 010°59'1615.9
2015-Jan-26 20:33N 58°36' E 010°50'1615.6
2015-Jan-26 19:33N 58°52' E 010°44'1816.7
2015-Jan-26 18:30N 59°09' E 010°39'1616.9
2015-Jan-26 17:34N 59°25' E 010°33'1615.9
2015-Jan-26 16:33N 59°41' E 010°37'1413.3
2015-Jan-26 15:31N 59°54' E 010°43'1 0.5
2015-Jan-26 14:10N 59°54' E 010°45'0 0.0
2015-Jan-26 13:22N 59°54' E 010°45'0 0.0
2015-Jan-26 12:28N 59°54' E 010°45'0 0.0
2015-Jan-26 11:28N 59°54' E 010°45'0 0.0
2015-Jan-26 10:25N 59°54' E 010°45'0 0.0
2015-Jan-26 09:31N 59°54' E 010°45'0 0.1
2015-Jan-26 08:34N 59°54' E 010°45'2613.2
2015-Jan-26 06:33N 59°28' E 010°34'1716.7
2015-Jan-26 05:33N 59°12' E 010°39'1616.4
2015-Jan-26 04:33N 58°55' E 010°43'1615.9
2015-Jan-26 03:33N 58°39' E 010°47'1615.6
2015-Jan-26 02:33N 58°25' E 010°56'1616.1
2015-Jan-26 01:33N 58°09' E 011°05'1716.6
2015-Jan-26 00:34N 57°53' E 011°14'1616.4
2015-Jan-25 23:33N 57°38' E 011°24'1616.0
2015-Jan-25 22:33N 57°22' E 011°33'1616.0
2015-Jan-25 21:33N 57°07' E 011°42'1616.0
2015-Jan-25 20:33N 56°52' E 011°52'1616.1
2015-Jan-25 19:33N 56°39' E 012°07'1616.0
2015-Jan-25 18:33N 56°24' E 012°19'1616.3
2015-Jan-25 17:33N 56°09' E 012°31'1616.3
2015-Jan-25 16:33N 55°55' E 012°45'1313.3
2015-Jan-25 15:33N 55°42' E 012°36'0 0.3
2015-Jan-25 14:33N 55°42' E 012°36'0 0.0
2015-Jan-25 13:33N 55°42' E 012°36'0 0.0
2015-Jan-25 12:33N 55°42' E 012°36'0 0.0
2015-Jan-25 11:33N 55°42' E 012°36'0 0.0
2015-Jan-25 10:33N 55°42' E 012°36'0 0.0
2015-Jan-25 09:33N 55°42' E 012°36'0 0.0
2015-Jan-25 08:33N 55°42' E 012°36'0 0.0
2015-Jan-25 07:33N 55°42' E 012°36'8 8.4
2015-Jan-25 06:33N 55°50' E 012°42'1414.2
2015-Jan-25 05:33N 56°04' E 012°38'1515.0
2015-Jan-25 04:33N 56°17' E 012°24'1615.5
2015-Jan-25 03:33N 56°32' E 012°17'1616.0
2015-Jan-25 02:33N 56°47' E 012°11'1616.1
2015-Jan-25 01:33N 57°03' E 012°01'1716.8
2015-Jan-25 00:34N 57°18' E 011°47'1616.0
2015-Jan-24 23:33N 57°31' E 011°32'1716.7
2015-Jan-24 22:33N 57°46' E 011°19'1716.8
2015-Jan-24 21:33N 58°02' E 011°10'1616.0
2015-Jan-24 20:34N 58°18' E 011°01'1615.9
2015-Jan-24 19:34N 58°33' E 010°52'1615.7
2015-Jan-24 18:33N 58°48' E 010°45'1616.1
2015-Jan-24 17:33N 59°04' E 010°41'1615.7
2015-Jan-24 16:33N 59°20' E 010°35'1615.9
2015-Jan-24 15:33N 59°36' E 010°38'1813.9
2015-Jan-24 14:17N 59°53' E 010°40'1 0.1
2015-Jan-24 08:19N 59°54' E 010°41'2514.4
2015-Jan-24 06:33N 59°28' E 010°34'1817.6
2015-Jan-24 05:33N 59°11' E 010°39'3316.5
2015-Jan-24 03:33N 58°38' E 010°47'1616.2
2015-Jan-24 02:33N 58°23' E 010°57'1616.4
2015-Jan-24 01:33N 58°07' E 011°06'1615.9
2015-Jan-24 00:33N 57°52' E 011°15'1616.1
2015-Jan-23 23:33N 57°37' E 011°24'1716.6
2015-Jan-23 22:33N 57°21' E 011°34'1616.0
2015-Jan-23 21:32N 57°06' E 011°43'1615.9
2015-Jan-23 20:33N 56°51' E 011°55'1615.9
2015-Jan-23 19:33N 56°38' E 012°10'1616.1
2015-Jan-23 18:33N 56°23' E 012°20'1818.5
2015-Jan-23 17:33N 56°06' E 012°35'1716.9
2015-Jan-23 16:33N 55°50' E 012°45'10 9.6
2015-Jan-23 15:33N 55°42' E 012°36'0 0.0
2015-Jan-23 14:32N 55°42' E 012°36'0 0.0
2015-Jan-23 13:32N 55°42' E 012°36'0 0.0
2015-Jan-23 12:32N 55°42' E 012°36'0 0.0
2015-Jan-23 11:32N 55°42' E 012°36'0 0.0
2015-Jan-23 10:32N 55°42' E 012°36'0 0.0
2015-Jan-23 09:32N 55°42' E 012°36'0 0.3
2015-Jan-23 08:34N 55°42' E 012°36'1111.4
2015-Jan-23 07:34N 55°54' E 012°40'1413.6
2015-Jan-23 06:34N 56°07' E 012°32'1413.9
2015-Jan-23 05:33N 56°19' E 012°22'1514.4
2015-Jan-23 04:33N 56°34' E 012°17'1615.8
2015-Jan-23 03:33N 56°49' E 012°11'1615.7
2015-Jan-23 02:33N 57°03' E 012°00'1615.9
2015-Jan-23 01:33N 57°18' E 011°47'1515.5
2015-Jan-23 00:33N 57°31' E 011°32'1616.2
2015-Jan-22 23:33N 57°46' E 011°20'1717.0
2015-Jan-22 22:33N 58°02' E 011°10'1716.8
2015-Jan-22 21:33N 58°18' E 011°01'1616.4
2015-Jan-22 20:33N 58°33' E 010°52'1717.1
2015-Jan-22 19:33N 58°50' E 010°45'1817.8
2015-Jan-22 18:33N 59°08' E 010°39'1818.4
2015-Jan-22 17:33N 59°26' E 010°33'29 6.9
2015-Jan-22 13:24N 59°54' E 010°45'2 0.4
2015-Jan-22 08:26N 59°54' E 010°41'1813.9
2015-Jan-22 07:06N 59°35' E 010°38'815.4
2015-Jan-22 06:34N 59°27' E 010°34'1615.8
2015-Jan-22 05:34N 59°12' E 010°39'1615.7
2015-Jan-22 04:33N 58°56' E 010°39'1616.4
2015-Jan-22 03:33N 58°39' E 010°33'1716.7
2015-Jan-22 02:33N 58°24' E 010°42'1716.7
2015-Jan-22 01:33N 58°08' E 010°52'1716.5
2015-Jan-22 00:33N 57°52' E 011°03'1616.1
2015-Jan-21 23:33N 57°37' E 011°14'1216.8
2015-Jan-21 22:50N 57°28' E 011°27'116.6
2015-Jan-21 22:46N 57°27' E 011°28'416.7
2015-Jan-21 22:33N 57°23' E 011°30'1716.5
2015-Jan-21 21:31N 57°07' E 011°42'1515.9
2015-Jan-21 20:33N 56°53' E 011°52'1616.1
2015-Jan-21 19:33N 56°39' E 012°07'1615.7
2015-Jan-21 18:33N 56°25' E 012°19'1817.7
2015-Jan-21 17:34N 56°09' E 012°31'1716.7
2015-Jan-21 16:33N 55°54' E 012°44'1212.5
2015-Jan-21 15:33N 55°42' E 012°36'0 0.0
2015-Jan-21 14:32N 55°42' E 012°36'0 0.0
2015-Jan-21 13:32N 55°42' E 012°36'0 0.0
2015-Jan-21 12:32N 55°42' E 012°36'0 0.0
2015-Jan-21 11:33N 55°42' E 012°36'0 0.0
2015-Jan-21 10:32N 55°42' E 012°36'0 0.0
2015-Jan-21 09:32N 55°42' E 012°36'0 0.3
2015-Jan-21 08:33N 55°42' E 012°36'1211.7
2015-Jan-21 07:33N 55°54' E 012°39'1413.6
2015-Jan-21 06:33N 56°07' E 012°32'1414.3
2015-Jan-21 05:33N 56°20' E 012°22'1616.2
2015-Jan-21 04:33N 56°36' E 012°16'1716.9
2015-Jan-21 03:33N 56°52' E 012°09'1616.3
2015-Jan-21 02:33N 57°07' E 011°57'1616.2
2015-Jan-21 01:33N 57°22' E 011°43'1616.1
2015-Jan-21 00:33N 57°35' E 011°28'1616.3
2015-Jan-20 23:33N 57°50' E 011°16'1716.8
2015-Jan-20 22:33N 58°06' E 011°07'1616.2
2015-Jan-20 21:33N 58°22' E 010°59'1615.6
2015-Jan-20 20:33N 58°37' E 010°50'1616.1
2015-Jan-20 19:33N 58°53' E 010°44'1817.4
2015-Jan-20 18:31N 59°11' E 010°38'1718.1
2015-Jan-20 17:33N 59°28' E 010°34'2713.3
2015-Jan-20 15:33N 59°54' E 010°44'0 0.4
2015-Jan-20 14:28N 59°54' E 010°45'0 0.0
2015-Jan-20 13:31N 59°54' E 010°45'0 0.0
2015-Jan-20 12:31N 59°54' E 010°45'0 0.0
2015-Jan-20 11:31N 59°54' E 010°45'0 0.0
2015-Jan-20 10:22N 59°54' E 010°45'0 0.0
2015-Jan-20 09:22N 59°54' E 010°45'1 0.7
2015-Jan-20 08:33N 59°54' E 010°44'1913.0
2015-Jan-20 07:04N 59°35' E 010°38'815.8
2015-Jan-20 06:33N 59°27' E 010°34'1615.7
2015-Jan-20 05:33N 59°12' E 010°39'1616.0
2015-Jan-20 04:33N 58°56' E 010°43'3216.0
2015-Jan-20 02:33N 58°25' E 010°56'1916.5
2015-Jan-20 01:26N 58°07' E 011°07'1416.0
2015-Jan-20 00:34N 57°53' E 011°15'1616.1
2015-Jan-19 23:33N 57°38' E 011°24'1616.4
2015-Jan-19 22:33N 57°23' E 011°33'1616.1
2015-Jan-19 21:33N 57°07' E 011°42'1615.8
2015-Jan-19 20:33N 56°52' E 011°51'1615.7
2015-Jan-19 19:33N 56°39' E 012°07'1515.2
2015-Jan-19 18:33N 56°25' E 012°19'1716.9
2015-Jan-19 17:33N 56°10' E 012°31'1717.2
2015-Jan-19 16:33N 55°54' E 012°45'1313.3
2015-Jan-19 15:34N 55°42' E 012°36'0 0.0
2015-Jan-19 14:33N 55°42' E 012°36'0 0.0
2015-Jan-19 13:33N 55°42' E 012°36'0 0.0
2015-Jan-19 12:33N 55°42' E 012°36'0 0.0
2015-Jan-19 11:33N 55°42' E 012°36'0 0.0
2015-Jan-19 10:33N 55°42' E 012°36'0 0.0
2015-Jan-19 09:33N 55°42' E 012°36'0 0.0
2015-Jan-19 08:30N 55°42' E 012°36'0 0.0
2015-Jan-19 07:34N 55°42' E 012°36'8 7.9
2015-Jan-19 06:34N 55°49' E 012°42'1313.3
2015-Jan-19 05:34N 56°02' E 012°39'1414.0
2015-Jan-19 04:34N 56°14' E 012°26'1515.0
2015-Jan-19 03:34N 56°29' E 012°18'1716.6
2015-Jan-19 02:34N 56°45' E 012°12'1716.7
2015-Jan-19 01:33N 57°01' E 012°03'1716.7
2015-Jan-19 00:33N 57°16' E 011°49'1515.5
2015-Jan-18 23:34N 57°29' E 011°34'1515.5
2015-Jan-18 22:34N 57°43' E 011°21'1616.4
2015-Jan-18 21:34N 57°58' E 011°12'1616.5
2015-Jan-18 20:34N 58°14' E 011°03'1616.0
2015-Jan-18 19:34N 58°29' E 010°54'1515.1
2015-Jan-18 18:34N 58°44' E 010°48'3316.7
2015-Jan-18 16:33N 59°17' E 010°36'1717.0
2015-Jan-18 15:33N 59°34' E 010°37'1914.3
2015-Jan-18 14:13N 59°53' E 010°40'2 3.5
2015-Jan-18 13:31N 59°54' E 010°45'0 0.0
2015-Jan-18 12:31N 59°54' E 010°45'0 0.0
2015-Jan-18 11:22N 59°54' E 010°45'0 0.0
2015-Jan-18 10:25N 59°54' E 010°45'0 0.0
2015-Jan-18 09:25N 59°54' E 010°45'0 0.1
2015-Jan-18 08:34N 59°54' E 010°45'2713.5
2015-Jan-18 06:33N 59°28' E 010°34'1616.1
2015-Jan-18 05:33N 59°12' E 010°39'1615.9
2015-Jan-18 04:33N 58°56' E 010°42'1615.6
2015-Jan-18 03:30N 58°40' E 010°47'1616.8
2015-Jan-18 02:33N 58°24' E 010°57'1717.1
2015-Jan-18 01:33N 58°08' E 011°06'1717.2
2015-Jan-18 00:33N 57°52' E 011°16'1616.4
2015-Jan-17 23:33N 57°36' E 011°25'  
Track history (hours):
 
Tides and Currents Weather Stations Pressure Air Temp Water Temp Dewpoint Dewpoint Depression Visibility Wind Speed Wind Dir Waves Ship Positions

Pearl Of Scandinavia

Last reported at 2015-Jan-27 22:33 UTC. Time now 2015-Jan-27 23:06 UTC.
Position N 57°24' E 011°32'.

Length 176.4 m; beam 34 m; draft 6.215 m.

Type: Ship. MMSI: 219945000.

Date/timePositionNaut miles runAvg speedWind from/ knotsBaromVisibWave heightAir tempDewpointWater temp
2015-Jan-27 22:33N 57°24' E 011°32'1716.6
2015-Jan-27 21:33N 57°08' E 011°41'1616.6
2015-Jan-27 20:33N 56°52' E 011°52'1616.5
2015-Jan-27 19:33N 56°38' E 012°07'1616.2
2015-Jan-27 18:33N 56°23' E 012°18'1616.2
2015-Jan-27 17:33N 56°09' E 012°31'1515.3
2015-Jan-27 16:33N 55°55' E 012°44'1313.3
2015-Jan-27 15:33N 55°42' E 012°37'0 0.5
2015-Jan-27 14:33N 55°42' E 012°36'0 0.0
2015-Jan-27 13:33N 55°42' E 012°36'0 0.0
2015-Jan-27 12:33N 55°42' E 012°36'0 0.0
2015-Jan-27 11:33N 55°42' E 012°36'0 0.0
2015-Jan-27 10:30N 55°42' E 012°36'0 0.0
2015-Jan-27 09:33N 55°42' E 012°36'0 0.2
2015-Jan-27 08:33N 55°42' E 012°36'1110.7
2015-Jan-27 07:33N 55°53' E 012°40'1414.4
2015-Jan-27 06:33N 56°06' E 012°32'1515.4
2015-Jan-27 05:33N 56°21' E 012°22'1515.4
2015-Jan-27 04:33N 56°36' E 012°16'1615.9
2015-Jan-27 03:33N 56°51' E 012°10'1616.0
2015-Jan-27 02:34N 57°06' E 011°58'1716.7
2015-Jan-27 01:34N 57°21' E 011°43'1616.3
2015-Jan-27 00:33N 57°35' E 011°29'1616.3
2015-Jan-26 23:33N 57°50' E 011°16'1716.6
2015-Jan-26 22:33N 58°05' E 011°05'1616.1
2015-Jan-26 21:33N 58°21' E 010°59'1615.9
2015-Jan-26 20:33N 58°36' E 010°50'1615.6
2015-Jan-26 19:33N 58°52' E 010°44'1816.7
2015-Jan-26 18:30N 59°09' E 010°39'1616.9
2015-Jan-26 17:34N 59°25' E 010°33'1615.9
2015-Jan-26 16:33N 59°41' E 010°37'1413.3
2015-Jan-26 15:31N 59°54' E 010°43'1 0.5
2015-Jan-26 14:10N 59°54' E 010°45'0 0.0
2015-Jan-26 13:22N 59°54' E 010°45'0 0.0
2015-Jan-26 12:28N 59°54' E 010°45'0 0.0
2015-Jan-26 11:28N 59°54' E 010°45'0 0.0
2015-Jan-26 10:25N 59°54' E 010°45'0 0.0
2015-Jan-26 09:31N 59°54' E 010°45'0 0.1
2015-Jan-26 08:34N 59°54' E 010°45'2613.2
2015-Jan-26 06:33N 59°28' E 010°34'1716.7
2015-Jan-26 05:33N 59°12' E 010°39'1616.4
2015-Jan-26 04:33N 58°55' E 010°43'1615.9
2015-Jan-26 03:33N 58°39' E 010°47'1615.6
2015-Jan-26 02:33N 58°25' E 010°56'1616.1
2015-Jan-26 01:33N 58°09' E 011°05'1716.6
2015-Jan-26 00:34N 57°53' E 011°14'1616.4
2015-Jan-25 23:33N 57°38' E 011°24'1616.0
2015-Jan-25 22:33N 57°22' E 011°33'1616.0
2015-Jan-25 21:33N 57°07' E 011°42'1616.0
2015-Jan-25 20:33N 56°52' E 011°52'1616.1
2015-Jan-25 19:33N 56°39' E 012°07'1616.0
2015-Jan-25 18:33N 56°24' E 012°19'1616.3
2015-Jan-25 17:33N 56°09' E 012°31'1616.3
2015-Jan-25 16:33N 55°55' E 012°45'1313.3
2015-Jan-25 15:33N 55°42' E 012°36'0 0.3
2015-Jan-25 14:33N 55°42' E 012°36'0 0.0
2015-Jan-25 13:33N 55°42' E 012°36'0 0.0
2015-Jan-25 12:33N 55°42' E 012°36'0 0.0
2015-Jan-25 11:33N 55°42' E 012°36'0 0.0
2015-Jan-25 10:33N 55°42' E 012°36'0 0.0
2015-Jan-25 09:33N 55°42' E 012°36'0 0.0
2015-Jan-25 08:33N 55°42' E 012°36'0 0.0
2015-Jan-25 07:33N 55°42' E 012°36'8 8.4
2015-Jan-25 06:33N 55°50' E 012°42'1414.2
2015-Jan-25 05:33N 56°04' E 012°38'1515.0
2015-Jan-25 04:33N 56°17' E 012°24'1615.5
2015-Jan-25 03:33N 56°32' E 012°17'1616.0
2015-Jan-25 02:33N 56°47' E 012°11'1616.1
2015-Jan-25 01:33N 57°03' E 012°01'1716.8
2015-Jan-25 00:34N 57°18' E 011°47'1616.0
2015-Jan-24 23:33N 57°31' E 011°32'1716.7
2015-Jan-24 22:33N 57°46' E 011°19'1716.8
2015-Jan-24 21:33N 58°02' E 011°10'1616.0
2015-Jan-24 20:34N 58°18' E 011°01'1615.9
2015-Jan-24 19:34N 58°33' E 010°52'1615.7
2015-Jan-24 18:33N 58°48' E 010°45'1616.1
2015-Jan-24 17:33N 59°04' E 010°41'1615.7
2015-Jan-24 16:33N 59°20' E 010°35'1615.9
2015-Jan-24 15:33N 59°36' E 010°38'1813.9
2015-Jan-24 14:17N 59°53' E 010°40'1 0.1
2015-Jan-24 08:19N 59°54' E 010°41'2514.4
2015-Jan-24 06:33N 59°28' E 010°34'1817.6
2015-Jan-24 05:33N 59°11' E 010°39'3316.5
2015-Jan-24 03:33N 58°38' E 010°47'1616.2
2015-Jan-24 02:33N 58°23' E 010°57'1616.4
2015-Jan-24 01:33N 58°07' E 011°06'1615.9
2015-Jan-24 00:33N 57°52' E 011°15'1616.1
2015-Jan-23 23:33N 57°37' E 011°24'1716.6
2015-Jan-23 22:33N 57°21' E 011°34'1616.0
2015-Jan-23 21:32N 57°06' E 011°43'1615.9
2015-Jan-23 20:33N 56°51' E 011°55'1615.9
2015-Jan-23 19:33N 56°38' E 012°10'1616.1
2015-Jan-23 18:33N 56°23' E 012°20'1818.5
2015-Jan-23 17:33N 56°06' E 012°35'1716.9
2015-Jan-23 16:33N 55°50' E 012°45'10 9.6
2015-Jan-23 15:33N 55°42' E 012°36'0 0.0
2015-Jan-23 14:32N 55°42' E 012°36'0 0.0
2015-Jan-23 13:32N 55°42' E 012°36'0 0.0
2015-Jan-23 12:32N 55°42' E 012°36'0 0.0
2015-Jan-23 11:32N 55°42' E 012°36'0 0.0
2015-Jan-23 10:32N 55°42' E 012°36'0 0.0
2015-Jan-23 09:32N 55°42' E 012°36'0 0.3
2015-Jan-23 08:34N 55°42' E 012°36'1111.4
2015-Jan-23 07:34N 55°54' E 012°40'1413.6
2015-Jan-23 06:34N 56°07' E 012°32'1413.9
2015-Jan-23 05:33N 56°19' E 012°22'1514.4
2015-Jan-23 04:33N 56°34' E 012°17'1615.8
2015-Jan-23 03:33N 56°49' E 012°11'1615.7
2015-Jan-23 02:33N 57°03' E 012°00'1615.9
2015-Jan-23 01:33N 57°18' E 011°47'1515.5
2015-Jan-23 00:33N 57°31' E 011°32'1616.2
2015-Jan-22 23:33N 57°46' E 011°20'1717.0
2015-Jan-22 22:33N 58°02' E 011°10'1716.8
2015-Jan-22 21:33N 58°18' E 011°01'1616.4
2015-Jan-22 20:33N 58°33' E 010°52'1717.1
2015-Jan-22 19:33N 58°50' E 010°45'1817.8
2015-Jan-22 18:33N 59°08' E 010°39'1818.4
2015-Jan-22 17:33N 59°26' E 010°33'29 6.9
2015-Jan-22 13:24N 59°54' E 010°45'2 0.4
2015-Jan-22 08:26N 59°54' E 010°41'1813.9
2015-Jan-22 07:06N 59°35' E 010°38'815.4
2015-Jan-22 06:34N 59°27' E 010°34'1615.8
2015-Jan-22 05:34N 59°12' E 010°39'1615.7
2015-Jan-22 04:33N 58°56' E 010°39'1616.4
2015-Jan-22 03:33N 58°39' E 010°33'1716.7
2015-Jan-22 02:33N 58°24' E 010°42'1716.7
2015-Jan-22 01:33N 58°08' E 010°52'1716.5
2015-Jan-22 00:33N 57°52' E 011°03'1616.1
2015-Jan-21 23:33N 57°37' E 011°14'1216.8
2015-Jan-21 22:50N 57°28' E 011°27'116.6
2015-Jan-21 22:46N 57°27' E 011°28'416.7
2015-Jan-21 22:33N 57°23' E 011°30'1716.5
2015-Jan-21 21:31N 57°07' E 011°42'1515.9
2015-Jan-21 20:33N 56°53' E 011°52'1616.1
2015-Jan-21 19:33N 56°39' E 012°07'1615.7
2015-Jan-21 18:33N 56°25' E 012°19'1817.7
2015-Jan-21 17:34N 56°09' E 012°31'1716.7
2015-Jan-21 16:33N 55°54' E 012°44'1212.5
2015-Jan-21 15:33N 55°42' E 012°36'0 0.0
2015-Jan-21 14:32N 55°42' E 012°36'0 0.0
2015-Jan-21 13:32N 55°42' E 012°36'0 0.0
2015-Jan-21 12:32N 55°42' E 012°36'0 0.0
2015-Jan-21 11:33N 55°42' E 012°36'0 0.0
2015-Jan-21 10:32N 55°42' E 012°36'0 0.0
2015-Jan-21 09:32N 55°42' E 012°36'0 0.3
2015-Jan-21 08:33N 55°42' E 012°36'1211.7
2015-Jan-21 07:33N 55°54' E 012°39'1413.6
2015-Jan-21 06:33N 56°07' E 012°32'1414.3
2015-Jan-21 05:33N 56°20' E 012°22'1616.2
2015-Jan-21 04:33N 56°36' E 012°16'1716.9
2015-Jan-21 03:33N 56°52' E 012°09'1616.3
2015-Jan-21 02:33N 57°07' E 011°57'1616.2
2015-Jan-21 01:33N 57°22' E 011°43'1616.1
2015-Jan-21 00:33N 57°35' E 011°28'1616.3
2015-Jan-20 23:33N 57°50' E 011°16'1716.8
2015-Jan-20 22:33N 58°06' E 011°07'1616.2
2015-Jan-20 21:33N 58°22' E 010°59'1615.6
2015-Jan-20 20:33N 58°37' E 010°50'1616.1
2015-Jan-20 19:33N 58°53' E 010°44'1817.4
2015-Jan-20 18:31N 59°11' E 010°38'1718.1
2015-Jan-20 17:33N 59°28' E 010°34'2713.3
2015-Jan-20 15:33N 59°54' E 010°44'0 0.4
2015-Jan-20 14:28N 59°54' E 010°45'0 0.0
2015-Jan-20 13:31N 59°54' E 010°45'0 0.0
2015-Jan-20 12:31N 59°54' E 010°45'0 0.0
2015-Jan-20 11:31N 59°54' E 010°45'0 0.0
2015-Jan-20 10:22N 59°54' E 010°45'0 0.0
2015-Jan-20 09:22N 59°54' E 010°45'1 0.7
2015-Jan-20 08:33N 59°54' E 010°44'1913.0
2015-Jan-20 07:04N 59°35' E 010°38'815.8
2015-Jan-20 06:33N 59°27' E 010°34'1615.7
2015-Jan-20 05:33N 59°12' E 010°39'1616.0
2015-Jan-20 04:33N 58°56' E 010°43'3216.0
2015-Jan-20 02:33N 58°25' E 010°56'1916.5
2015-Jan-20 01:26N 58°07' E 011°07'1416.0
2015-Jan-20 00:34N 57°53' E 011°15'1616.1
2015-Jan-19 23:33N 57°38' E 011°24'1616.4
2015-Jan-19 22:33N 57°23' E 011°33'1616.1
2015-Jan-19 21:33N 57°07' E 011°42'1615.8
2015-Jan-19 20:33N 56°52' E 011°51'1615.7
2015-Jan-19 19:33N 56°39' E 012°07'1515.2
2015-Jan-19 18:33N 56°25' E 012°19'1716.9
2015-Jan-19 17:33N 56°10' E 012°31'1717.2
2015-Jan-19 16:33N 55°54' E 012°45'1313.3
2015-Jan-19 15:34N 55°42' E 012°36'0 0.0
2015-Jan-19 14:33N 55°42' E 012°36'0 0.0
2015-Jan-19 13:33N 55°42' E 012°36'0 0.0
2015-Jan-19 12:33N 55°42' E 012°36'0 0.0
2015-Jan-19 11:33N 55°42' E 012°36'0 0.0
2015-Jan-19 10:33N 55°42' E 012°36'0 0.0
2015-Jan-19 09:33N 55°42' E 012°36'0 0.0
2015-Jan-19 08:30N 55°42' E 012°36'0 0.0
2015-Jan-19 07:34N 55°42' E 012°36'8 7.9
2015-Jan-19 06:34N 55°49' E 012°42'1313.3
2015-Jan-19 05:34N 56°02' E 012°39'1414.0
2015-Jan-19 04:34N 56°14' E 012°26'1515.0
2015-Jan-19 03:34N 56°29' E 012°18'1716.6
2015-Jan-19 02:34N 56°45' E 012°12'1716.7
2015-Jan-19 01:33N 57°01' E 012°03'1716.7
2015-Jan-19 00:33N 57°16' E 011°49'1515.5
2015-Jan-18 23:34N 57°29' E 011°34'1515.5
2015-Jan-18 22:34N 57°43' E 011°21'1616.4
2015-Jan-18 21:34N 57°58' E 011°12'1616.5
2015-Jan-18 20:34N 58°14' E 011°03'1616.0
2015-Jan-18 19:34N 58°29' E 010°54'1515.1
2015-Jan-18 18:34N 58°44' E 010°48'3316.7
2015-Jan-18 16:33N 59°17' E 010°36'1717.0
2015-Jan-18 15:33N 59°34' E 010°37'1914.3
2015-Jan-18 14:13N 59°53' E 010°40'2 3.5
2015-Jan-18 13:31N 59°54' E 010°45'0 0.0
2015-Jan-18 12:31N 59°54' E 010°45'0 0.0
2015-Jan-18 11:22N 59°54' E 010°45'0 0.0
2015-Jan-18 10:25N 59°54' E 010°45'0 0.0
2015-Jan-18 09:25N 59°54' E 010°45'0 0.1
2015-Jan-18 08:34N 59°54' E 010°45'2713.5
2015-Jan-18 06:33N 59°28' E 010°34'1616.1
2015-Jan-18 05:33N 59°12' E 010°39'1615.9
2015-Jan-18 04:33N 58°56' E 010°42'1615.6
2015-Jan-18 03:30N 58°40' E 010°47'1616.8
2015-Jan-18 02:33N 58°24' E 010°57'1717.1
2015-Jan-18 01:33N 58°08' E 011°06'1717.2
2015-Jan-18 00:33N 57°52' E 011°16'1616.4
2015-Jan-17 23:33N 57°36' E 011°25'  

Dump ship's entire track history